Bemidji Regional Airport
KBJI : now visible

Airfield :











YOU CAN JOIN US ON...

 
LOGIN :

Register | Disclaimer

   EN    FR    IT 

 









Legend :    VFR   Marginal VFR   IFR   Intensive IFR   Very Intensive IFR
Visi :
Ceiling :
>= 8 km
>= 3000ft
5 to 8 km
1000 to 3000 ft
1500m to 5 km
500 to 1000 ft
800 to 1500m
200 to 500 ft
< 800m
< 200 ft
Symbols :   Thunderstorms  Fog  Heavy snow  Heavy precipitations  Wind > 20 kt






- Airport Elevation : 1391 ft


KBJI - Bemidji Regional

CURRENT METAR :
  • 071555Z AUTO 00000KT 10SM BKN038 05/M04 A3053 RMK AO2 T00461036

EXPIRED METARs :
  • 071535Z AUTO 00000KT 10SM SCT036 05/M04 A3053 RMK AO2 T00451036
  • 071515Z AUTO 00000KT 10SM SCT036 05/M04 A3053 RMK AO2 T00451036
  • 071455Z AUTO 00000KT 10SM CLR 04/M02 A3054 RMK AO2 T00371024
  • 071435Z AUTO 00000KT 10SM CLR 03/M01 A3055 RMK AO2 T00331009
  • 071415Z AUTO 00000KT 10SM SCT043 03/00 A3054 RMK AO2 T00250000
  • 071355Z AUTO 00000KT 10SM BKN043 02/00 A3055 RMK AO2 T00171002
  • 071335Z AUTO 00000KT 10SM OVC043 02/00 A3055 RMK AO2 T00160000
  • 071315Z AUTO 00000KT 10SM OVC043 02/00 A3054 RMK AO2 T00150000

TAF KBJI
Valid from the 07 at 12:00 until the 08 at 12:00 UTC


071120Z 0712/0812 00000KT P6SM BKN040
FM071700 29005KT P6SM SCT040
FM072100 27009KT P6SM SKC
FM080100 00000KT P6SM SKC
FM080600 25005KT P6SM FEW250
KZMP FIR / North America



MET'MAP, your aeronautical weather chart ! - Copyright ORBIFLY December 2007 - Disclaimer

ORBIFLY MET'MAP TEAM :

Programming & Development : Alexandra Zaïnal
Original concept : Baudouin d'Aumeries
Technical & hardware support : Manuel Goepfert
Assistance : Marc-Olivier Méhu




SOURCES & CREDITS :

   NOAA       Earth
Advisory